Huvudsida
METAR-TAF:

METAR-TAF

Flygplatser :

Höga Kusten Airport

Kramfors, Sverige

latitud: 63-03N, longitud: 017-46E, höjd: 10 m

Aktuellt väderrapport

Denna rapport gjordes för 42 minuter sedan, klockan 07:50 UTC
Vind 6 kt från nord/nordväst
Temperatur -5°C
Fuktighet 93%
Tryck 1001 hPa
Sikt 10 km eller mer

METAR: ESNK 250750Z AUTO 34006KT 9999 OVC010/// M05/M06 Q1001

Tid: 09:32 (08:32 UTC)


TAF: saknas

Aktuella väderrapporter och prognoser från 4000 flygplatser (METAR- och TAF-rapporter).

De tillgängliga stationerna syns som gula och röda prickar på kartan.

För musen över prickarna för att se namnen på stationerna.

Klicka sedan för att få väderrapporter och prognoser.

För att ändra kartan: Klicka på de gröna knapparna med ett svart kors på för att zooma in; den gröna knappen med ett streck på för att zooma ut; eller på de gröna pilarna för angränsande kartor.


METAR-TAF: